BEL19K LKPR-EBBR
Flight info
| Callsign | BEL19K |
|---|---|
| Flight time | 1h 2m |
| Altitude | 34000 |
| Route | BALTU4B/30 BALTU DCT DONAD DCT RAPET Z93 KODUK DCT MARZA DCT TEKTU DCT TESGA DCT UMUPU T880 ADMUM/N0367F240 T880 BATTY |
| Aircraft | A320/M-SDE3FGHIRWY/LB1 |
Departure
| Time | 2026-05-07 19:01 |
|---|---|
| Airport | Václav Havel Airport Prague (LKPR) |
Arrival
| Time | 2026-05-07 20:04 |
|---|---|
| Airport | Brussels Airport (EBBR) |
| Time | Latitude | Longitude | Altitude | Speed | Heading |
|---|---|---|---|---|---|
| 2026-05-07 18:42 | 50.10370 | 14.26748 | 1174 ft | 0 kts | 34° |
| 2026-05-07 18:50 | 50.10370 | 14.26747 | 1174 ft | 1 kts | 34° |
| 2026-05-07 18:51 | 50.10359 | 14.26736 | 1169 ft | 2 kts | 34° |
| 2026-05-07 18:51 | 50.10346 | 14.26720 | 1169 ft | 3 kts | 62° |
| 2026-05-07 18:51 | 50.10342 | 14.26698 | 1171 ft | 3 kts | 99° |
| 2026-05-07 18:54 | 50.10325 | 14.26694 | 1171 ft | 7 kts | 213° |
| 2026-05-07 18:54 | 50.10343 | 14.26636 | 1170 ft | 8 kts | 324° |
| 2026-05-07 18:54 | 50.10389 | 14.26572 | 1172 ft | 11 kts | 311° |
| 2026-05-07 18:55 | 50.10447 | 14.26444 | 1170 ft | 17 kts | 304° |
| 2026-05-07 18:55 | 50.10517 | 14.26289 | 1172 ft | 18 kts | 304° |
| 2026-05-07 18:55 | 50.10531 | 14.26101 | 1170 ft | 17 kts | 258° |
| 2026-05-07 18:55 | 50.10468 | 14.26041 | 1174 ft | 14 kts | 137° |
| 2026-05-07 18:56 | 50.10409 | 14.26162 | 1175 ft | 13 kts | 128° |
| 2026-05-07 18:56 | 50.10354 | 14.26277 | 1177 ft | 17 kts | 126° |
| 2026-05-07 18:56 | 50.10247 | 14.26499 | 1177 ft | 31 kts | 127° |
| 2026-05-07 18:56 | 50.10127 | 14.26746 | 1182 ft | 27 kts | 127° |
| 2026-05-07 18:57 | 50.10017 | 14.26974 | 1195 ft | 29 kts | 127° |
| 2026-05-07 18:57 | 50.09891 | 14.27234 | 1202 ft | 30 kts | 127° |
| 2026-05-07 18:57 | 50.09778 | 14.27428 | 1205 ft | 21 kts | 135° |
| 2026-05-07 18:57 | 50.09675 | 14.27586 | 1207 ft | 21 kts | 135° |
| 2026-05-07 18:58 | 50.09575 | 14.27608 | 1212 ft | 14 kts | 214° |
| 2026-05-07 18:58 | 50.09498 | 14.27518 | 1212 ft | 9 kts | 217° |
| 2026-05-07 18:58 | 50.09491 | 14.27510 | 1212 ft | 0 kts | 217° |
| 2026-05-07 18:59 | 50.09471 | 14.27485 | 1211 ft | 10 kts | 218° |
| 2026-05-07 18:59 | 50.09415 | 14.27413 | 1210 ft | 7 kts | 234° |
| 2026-05-07 18:59 | 50.09434 | 14.27364 | 1209 ft | 0 kts | 307° |
| 2026-05-07 19:00 | 50.09482 | 14.27264 | 1206 ft | 44 kts | 307° |
| 2026-05-07 19:01 | 50.09812 | 14.26580 | 1207 ft | 111 kts | 307° |
| 2026-05-07 19:01 | 50.10130 | 14.25911 | 1190 ft | 145 kts | 306° |
| 2026-05-07 19:01 | 50.10811 | 14.24518 | 1466 ft | 164 kts | 306° |
| 2026-05-07 19:01 | 50.11503 | 14.23134 | 2140 ft | 164 kts | 307° |
| 2026-05-07 19:02 | 50.11961 | 14.22193 | 2610 ft | 165 kts | 306° |
| 2026-05-07 19:02 | 50.12516 | 14.21053 | 2827 ft | 187 kts | 307° |
| 2026-05-07 19:02 | 50.13349 | 14.19320 | 3136 ft | 210 kts | 307° |
| 2026-05-07 19:02 | 50.14267 | 14.17404 | 3526 ft | 232 kts | 306° |
| 2026-05-07 19:03 | 50.15252 | 14.15344 | 4047 ft | 251 kts | 306° |
| 2026-05-07 19:03 | 50.16301 | 14.13151 | 4927 ft | 257 kts | 305° |
| 2026-05-07 19:03 | 50.17394 | 14.10860 | 5839 ft | 262 kts | 304° |
| 2026-05-07 19:03 | 50.18493 | 14.08559 | 6695 ft | 267 kts | 304° |
| 2026-05-07 19:04 | 50.19601 | 14.06243 | 7608 ft | 271 kts | 305° |
| 2026-05-07 19:04 | 50.20736 | 14.03871 | 8465 ft | 275 kts | 304° |
| 2026-05-07 19:04 | 50.21777 | 14.01355 | 9285 ft | 278 kts | 292° |
| 2026-05-07 19:04 | 50.22316 | 13.98454 | 10081 ft | 279 kts | 275° |
| 2026-05-07 19:05 | 50.22265 | 13.95381 | 10572 ft | 293 kts | 258° |
| 2026-05-07 19:05 | 50.21681 | 13.92195 | 10800 ft | 316 kts | 255° |
| 2026-05-07 19:05 | 50.21359 | 13.88698 | 11131 ft | 334 kts | 266° |
| 2026-05-07 19:05 | 50.21348 | 13.85011 | 11798 ft | 341 kts | 271° |
| 2026-05-07 19:06 | 50.21459 | 13.81286 | 12518 ft | 345 kts | 272° |
| 2026-05-07 19:06 | 50.21668 | 13.73712 | 13919 ft | 353 kts | 270° |
| 2026-05-07 19:06 | 50.21706 | 13.69861 | 14552 ft | 356 kts | 269° |
| 2026-05-07 19:07 | 50.21699 | 13.66023 | 15181 ft | 360 kts | 268° |
| 2026-05-07 19:07 | 50.21665 | 13.62105 | 15817 ft | 363 kts | 268° |
| 2026-05-07 19:07 | 50.21618 | 13.58141 | 16444 ft | 366 kts | 268° |
| 2026-05-07 19:07 | 50.21567 | 13.54147 | 17073 ft | 369 kts | 268° |
| 2026-05-07 19:08 | 50.21518 | 13.50109 | 17704 ft | 373 kts | 268° |
| 2026-05-07 19:08 | 50.21473 | 13.46041 | 18296 ft | 377 kts | 268° |
| 2026-05-07 19:08 | 50.21429 | 13.41923 | 18828 ft | 380 kts | 268° |
| 2026-05-07 19:08 | 50.21386 | 13.37777 | 19374 ft | 383 kts | 268° |
| 2026-05-07 19:09 | 50.21347 | 13.33635 | 19919 ft | 386 kts | 268° |
| 2026-05-07 19:09 | 50.21307 | 13.29423 | 20468 ft | 389 kts | 268° |
| 2026-05-07 19:09 | 50.21261 | 13.25180 | 20994 ft | 392 kts | 268° |
| 2026-05-07 19:09 | 50.21210 | 13.20896 | 21514 ft | 395 kts | 268° |
| 2026-05-07 19:10 | 50.21158 | 13.16584 | 22020 ft | 398 kts | 268° |
| 2026-05-07 19:10 | 50.21105 | 13.12243 | 22447 ft | 401 kts | 268° |
| 2026-05-07 19:10 | 50.21052 | 13.07930 | 22915 ft | 404 kts | 268° |
| 2026-05-07 19:10 | 50.20993 | 13.03487 | 23384 ft | 407 kts | 268° |
| 2026-05-07 19:11 | 50.20933 | 12.99070 | 23774 ft | 410 kts | 267° |
| 2026-05-07 19:11 | 50.20868 | 12.94599 | 24167 ft | 412 kts | 268° |
| 2026-05-07 19:11 | 50.20801 | 12.90160 | 24524 ft | 415 kts | 268° |
| 2026-05-07 19:11 | 50.20732 | 12.85611 | 24885 ft | 417 kts | 268° |
| 2026-05-07 19:12 | 50.20665 | 12.81076 | 25260 ft | 419 kts | 268° |
| 2026-05-07 19:12 | 50.20598 | 12.76556 | 25618 ft | 421 kts | 267° |
| 2026-05-07 19:12 | 50.20526 | 12.71959 | 25989 ft | 423 kts | 267° |
| 2026-05-07 19:12 | 50.20452 | 12.67350 | 26354 ft | 425 kts | 267° |
| 2026-05-07 19:13 | 50.20375 | 12.62777 | 26704 ft | 427 kts | 267° |
| 2026-05-07 19:13 | 50.20294 | 12.58121 | 27054 ft | 429 kts | 266° |
| 2026-05-07 19:13 | 50.20210 | 12.53453 | 27393 ft | 431 kts | 266° |
| 2026-05-07 19:13 | 50.20126 | 12.48759 | 27722 ft | 433 kts | 266° |
| 2026-05-07 19:14 | 50.20041 | 12.44038 | 28045 ft | 435 kts | 266° |
| 2026-05-07 19:14 | 50.19955 | 12.39303 | 28346 ft | 437 kts | 266° |
| 2026-05-07 19:14 | 50.19866 | 12.34541 | 28638 ft | 439 kts | 266° |
| 2026-05-07 19:14 | 50.19775 | 12.29810 | 28920 ft | 441 kts | 266° |
| 2026-05-07 19:15 | 50.19681 | 12.25007 | 29194 ft | 443 kts | 266° |
| 2026-05-07 19:15 | 50.19581 | 12.20182 | 29454 ft | 445 kts | 265° |
| 2026-05-07 19:15 | 50.19478 | 12.15345 | 29670 ft | 446 kts | 265° |
| 2026-05-07 19:15 | 50.19371 | 12.10542 | 29932 ft | 447 kts | 265° |
| 2026-05-07 19:16 | 50.19262 | 12.05703 | 30229 ft | 446 kts | 265° |
| 2026-05-07 19:16 | 50.19155 | 12.00876 | 30524 ft | 445 kts | 265° |
| 2026-05-07 19:16 | 50.19046 | 11.96047 | 30800 ft | 445 kts | 265° |
| 2026-05-07 19:16 | 50.18940 | 11.91223 | 31060 ft | 445 kts | 265° |
| 2026-05-07 19:17 | 50.18833 | 11.86394 | 31350 ft | 444 kts | 265° |
| 2026-05-07 19:17 | 50.18723 | 11.81581 | 31647 ft | 443 kts | 264° |
| 2026-05-07 19:17 | 50.18611 | 11.76777 | 31946 ft | 442 kts | 264° |
| 2026-05-07 19:17 | 50.18494 | 11.71973 | 32259 ft | 441 kts | 264° |
| 2026-05-07 19:18 | 50.18374 | 11.67198 | 32575 ft | 440 kts | 264° |
| 2026-05-07 19:18 | 50.18255 | 11.62475 | 32888 ft | 440 kts | 264° |
| 2026-05-07 19:18 | 50.18130 | 11.57715 | 33201 ft | 439 kts | 264° |
| 2026-05-07 19:18 | 50.18002 | 11.52972 | 33527 ft | 438 kts | 263° |
| 2026-05-07 19:19 | 50.17873 | 11.48209 | 33788 ft | 439 kts | 263° |
| 2026-05-07 19:19 | 50.17743 | 11.43427 | 33909 ft | 440 kts | 263° |
| 2026-05-07 19:19 | 50.17487 | 11.33921 | 33918 ft | 440 kts | 263° |
| 2026-05-07 19:20 | 50.17216 | 11.24363 | 33912 ft | 440 kts | 263° |
| 2026-05-07 19:20 | 50.16937 | 11.14874 | 33912 ft | 440 kts | 263° |
| 2026-05-07 19:21 | 50.16644 | 11.05318 | 33929 ft | 440 kts | 263° |
| 2026-05-07 19:21 | 50.16345 | 10.95753 | 33911 ft | 441 kts | 264° |
| 2026-05-07 19:22 | 50.16047 | 10.86170 | 33900 ft | 442 kts | 263° |
| 2026-05-07 19:22 | 50.15738 | 10.76596 | 33893 ft | 442 kts | 263° |
| 2026-05-07 19:23 | 50.15421 | 10.67063 | 33894 ft | 442 kts | 263° |
| 2026-05-07 19:23 | 50.15096 | 10.57475 | 33914 ft | 442 kts | 264° |
| 2026-05-07 19:24 | 50.14762 | 10.47869 | 33902 ft | 443 kts | 264° |
| 2026-05-07 19:24 | 50.14416 | 10.38335 | 33896 ft | 443 kts | 264° |
| 2026-05-07 19:25 | 50.14209 | 10.28719 | 33897 ft | 446 kts | 271° |
| 2026-05-07 19:25 | 50.15462 | 10.19188 | 33894 ft | 451 kts | 283° |
| 2026-05-07 19:26 | 50.17195 | 10.09802 | 33909 ft | 451 kts | 284° |
| 2026-05-07 19:26 | 50.18906 | 10.00434 | 33909 ft | 450 kts | 283° |
| 2026-05-07 19:27 | 50.20608 | 9.91015 | 33917 ft | 450 kts | 283° |
| 2026-05-07 19:27 | 50.22297 | 9.81590 | 33912 ft | 450 kts | 283° |
| 2026-05-07 19:28 | 50.23978 | 9.72174 | 33916 ft | 450 kts | 283° |
| 2026-05-07 19:28 | 50.25666 | 9.62764 | 33920 ft | 449 kts | 284° |
| 2026-05-07 19:29 | 50.27334 | 9.53386 | 33918 ft | 449 kts | 284° |
| 2026-05-07 19:29 | 50.28999 | 9.43957 | 33914 ft | 448 kts | 284° |
| 2026-05-07 19:30 | 50.30639 | 9.34607 | 33910 ft | 448 kts | 284° |
| 2026-05-07 19:30 | 50.32007 | 9.26772 | 33906 ft | 448 kts | 283° |
| 2026-05-07 19:31 | 50.33649 | 9.17333 | 33913 ft | 448 kts | 284° |
| 2026-05-07 19:31 | 50.35328 | 9.07954 | 33904 ft | 449 kts | 285° |
| 2026-05-07 19:32 | 50.37203 | 8.98608 | 33893 ft | 449 kts | 287° |
| 2026-05-07 19:32 | 50.39110 | 8.89315 | 33897 ft | 447 kts | 286° |
| 2026-05-07 19:33 | 50.40957 | 8.80047 | 33898 ft | 444 kts | 285° |
| 2026-05-07 19:33 | 50.42764 | 8.70779 | 33901 ft | 443 kts | 285° |
| 2026-05-07 19:34 | 50.44503 | 8.61493 | 33898 ft | 442 kts | 281° |
| 2026-05-07 19:34 | 50.45495 | 8.52010 | 33906 ft | 442 kts | 277° |
| 2026-05-07 19:35 | 50.46441 | 8.42467 | 33905 ft | 442 kts | 277° |
| 2026-05-07 19:35 | 50.47380 | 8.32974 | 33918 ft | 441 kts | 277° |
| 2026-05-07 19:36 | 50.48317 | 8.23436 | 33919 ft | 441 kts | 277° |
| 2026-05-07 19:36 | 50.49243 | 8.13917 | 33739 ft | 442 kts | 277° |
| 2026-05-07 19:37 | 50.49697 | 8.09197 | 33206 ft | 441 kts | 277° |
| 2026-05-07 19:37 | 50.50155 | 8.04436 | 32690 ft | 440 kts | 277° |
| 2026-05-07 19:37 | 50.50610 | 7.99672 | 32183 ft | 440 kts | 277° |
| 2026-05-07 19:37 | 50.51065 | 7.94911 | 31683 ft | 440 kts | 277° |
| 2026-05-07 19:38 | 50.51518 | 7.90148 | 31205 ft | 441 kts | 277° |
| 2026-05-07 19:38 | 50.51969 | 7.85393 | 30718 ft | 439 kts | 278° |
| 2026-05-07 19:38 | 50.52416 | 7.80627 | 30253 ft | 440 kts | 277° |
| 2026-05-07 19:38 | 50.52861 | 7.75857 | 29748 ft | 440 kts | 277° |
| 2026-05-07 19:39 | 50.53297 | 7.71167 | 29205 ft | 438 kts | 277° |
| 2026-05-07 19:39 | 50.53734 | 7.66454 | 28662 ft | 434 kts | 277° |
| 2026-05-07 19:39 | 50.54168 | 7.61764 | 28141 ft | 431 kts | 277° |
| 2026-05-07 19:39 | 50.54595 | 7.57112 | 27621 ft | 428 kts | 277° |
| 2026-05-07 19:40 | 50.55016 | 7.52465 | 27117 ft | 425 kts | 277° |
| 2026-05-07 19:40 | 50.55431 | 7.47888 | 26903 ft | 422 kts | 277° |
| 2026-05-07 19:40 | 50.55806 | 7.43450 | 26942 ft | 421 kts | 274° |
| 2026-05-07 19:40 | 50.55910 | 7.38865 | 26941 ft | 420 kts | 270° |
| 2026-05-07 19:41 | 50.55944 | 7.34313 | 26941 ft | 420 kts | 270° |
| 2026-05-07 19:41 | 50.55976 | 7.29674 | 26869 ft | 428 kts | 270° |
| 2026-05-07 19:41 | 50.56006 | 7.24979 | 26472 ft | 428 kts | 270° |
| 2026-05-07 19:41 | 50.56036 | 7.20309 | 26086 ft | 425 kts | 270° |
| 2026-05-07 19:42 | 50.56056 | 7.15663 | 25705 ft | 423 kts | 269° |
| 2026-05-07 19:42 | 50.56012 | 7.11041 | 25331 ft | 422 kts | 268° |
| 2026-05-07 19:42 | 50.55914 | 7.06445 | 24962 ft | 419 kts | 267° |
| 2026-05-07 19:42 | 50.55790 | 7.01915 | 24599 ft | 417 kts | 267° |
| 2026-05-07 19:43 | 50.55655 | 6.97372 | 24240 ft | 414 kts | 267° |
| 2026-05-07 19:43 | 50.55663 | 6.92845 | 23877 ft | 412 kts | 277° |
| 2026-05-07 19:43 | 50.56313 | 6.88464 | 23525 ft | 411 kts | 285° |
| 2026-05-07 19:43 | 50.57116 | 6.84147 | 23156 ft | 410 kts | 286° |
| 2026-05-07 19:44 | 50.57915 | 6.79888 | 22779 ft | 407 kts | 286° |
| 2026-05-07 19:44 | 50.58716 | 6.75626 | 22338 ft | 405 kts | 286° |
| 2026-05-07 19:44 | 50.59510 | 6.71387 | 21909 ft | 400 kts | 286° |
| 2026-05-07 19:44 | 50.60296 | 6.67193 | 21480 ft | 397 kts | 286° |
| 2026-05-07 19:45 | 50.61075 | 6.63019 | 21065 ft | 396 kts | 286° |
| 2026-05-07 19:45 | 50.61847 | 6.58864 | 20654 ft | 394 kts | 286° |
| 2026-05-07 19:45 | 50.62613 | 6.54730 | 20245 ft | 392 kts | 286° |
| 2026-05-07 19:45 | 50.63360 | 6.50669 | 19859 ft | 390 kts | 286° |
| 2026-05-07 19:46 | 50.64111 | 6.46564 | 19454 ft | 388 kts | 286° |
| 2026-05-07 19:46 | 50.64854 | 6.42495 | 19074 ft | 384 kts | 286° |
| 2026-05-07 19:46 | 50.65594 | 6.38439 | 18689 ft | 383 kts | 286° |
| 2026-05-07 19:46 | 50.66329 | 6.34401 | 18318 ft | 380 kts | 286° |
| 2026-05-07 19:47 | 50.67045 | 6.30459 | 17895 ft | 377 kts | 286° |
| 2026-05-07 19:47 | 50.67765 | 6.26486 | 17460 ft | 376 kts | 286° |
| 2026-05-07 19:47 | 50.68486 | 6.22513 | 17032 ft | 374 kts | 286° |
| 2026-05-07 19:47 | 50.69196 | 6.18591 | 16612 ft | 371 kts | 286° |
| 2026-05-07 19:48 | 50.69906 | 6.14666 | 16196 ft | 371 kts | 286° |
| 2026-05-07 19:48 | 50.70610 | 6.10761 | 15785 ft | 368 kts | 286° |
| 2026-05-07 19:48 | 50.71308 | 6.06891 | 15391 ft | 366 kts | 286° |
| 2026-05-07 19:48 | 50.72002 | 6.03026 | 15012 ft | 361 kts | 286° |
| 2026-05-07 19:49 | 50.72673 | 5.99277 | 14656 ft | 355 kts | 285° |
| 2026-05-07 19:49 | 50.73337 | 5.95566 | 14314 ft | 348 kts | 285° |
| 2026-05-07 19:49 | 50.73989 | 5.91915 | 13976 ft | 342 kts | 285° |
| 2026-05-07 19:49 | 50.74628 | 5.88312 | 13623 ft | 336 kts | 285° |
| 2026-05-07 19:50 | 50.75255 | 5.84774 | 13245 ft | 331 kts | 285° |
| 2026-05-07 19:50 | 50.75870 | 5.81296 | 12875 ft | 326 kts | 285° |
| 2026-05-07 19:50 | 50.76475 | 5.77875 | 12507 ft | 321 kts | 285° |
| 2026-05-07 19:50 | 50.77075 | 5.74493 | 12143 ft | 316 kts | 285° |
| 2026-05-07 19:51 | 50.77658 | 5.71207 | 11788 ft | 313 kts | 285° |
| 2026-05-07 19:51 | 50.78240 | 5.67909 | 11433 ft | 310 kts | 285° |
| 2026-05-07 19:51 | 50.78820 | 5.64618 | 11083 ft | 308 kts | 285° |
| 2026-05-07 19:51 | 50.79394 | 5.61352 | 10727 ft | 307 kts | 285° |
| 2026-05-07 19:52 | 50.79964 | 5.58108 | 10383 ft | 306 kts | 285° |
| 2026-05-07 19:52 | 50.80520 | 5.54928 | 10044 ft | 301 kts | 285° |
| 2026-05-07 19:52 | 50.81071 | 5.51760 | 9704 ft | 297 kts | 285° |
| 2026-05-07 19:52 | 50.81615 | 5.48624 | 9349 ft | 292 kts | 285° |
| 2026-05-07 19:53 | 50.82149 | 5.45550 | 9006 ft | 288 kts | 285° |
| 2026-05-07 19:53 | 50.82674 | 5.42515 | 8665 ft | 283 kts | 286° |
| 2026-05-07 19:53 | 50.83189 | 5.39532 | 8326 ft | 279 kts | 286° |
| 2026-05-07 19:53 | 50.83698 | 5.36573 | 7975 ft | 276 kts | 286° |
| 2026-05-07 19:54 | 50.84194 | 5.33694 | 7657 ft | 274 kts | 286° |
| 2026-05-07 19:54 | 50.84696 | 5.30782 | 7364 ft | 273 kts | 286° |
| 2026-05-07 19:54 | 50.85195 | 5.27885 | 7112 ft | 272 kts | 287° |
| 2026-05-07 19:54 | 50.85777 | 5.25040 | 6868 ft | 270 kts | 295° |
| 2026-05-07 19:55 | 50.86580 | 5.22345 | 6617 ft | 270 kts | 297° |
| 2026-05-07 19:55 | 50.87399 | 5.19719 | 6374 ft | 269 kts | 298° |
| 2026-05-07 19:55 | 50.88226 | 5.17061 | 6109 ft | 268 kts | 297° |
| 2026-05-07 19:55 | 50.89055 | 5.14427 | 5974 ft | 268 kts | 298° |
| 2026-05-07 19:56 | 50.89886 | 5.11792 | 5983 ft | 265 kts | 298° |
| 2026-05-07 19:56 | 50.90688 | 5.09241 | 5787 ft | 254 kts | 298° |
| 2026-05-07 19:56 | 50.91465 | 5.06756 | 5472 ft | 249 kts | 298° |
| 2026-05-07 19:56 | 50.92224 | 5.04309 | 5167 ft | 246 kts | 298° |
| 2026-05-07 19:57 | 50.92970 | 5.01875 | 4860 ft | 244 kts | 298° |
| 2026-05-07 19:57 | 50.93707 | 4.99458 | 4543 ft | 243 kts | 298° |
| 2026-05-07 19:57 | 50.94279 | 4.96977 | 4230 ft | 243 kts | 285° |
| 2026-05-07 19:57 | 50.94633 | 4.94351 | 3961 ft | 242 kts | 283° |
| 2026-05-07 19:58 | 50.94947 | 4.91771 | 3888 ft | 232 kts | 283° |
| 2026-05-07 19:58 | 50.95246 | 4.89273 | 3624 ft | 228 kts | 283° |
| 2026-05-07 19:58 | 50.95536 | 4.86839 | 3366 ft | 225 kts | 283° |
| 2026-05-07 19:58 | 50.95819 | 4.84445 | 3105 ft | 216 kts | 283° |
| 2026-05-07 19:59 | 50.96088 | 4.82159 | 2942 ft | 202 kts | 283° |
| 2026-05-07 19:59 | 50.96167 | 4.80024 | 2940 ft | 188 kts | 263° |
| 2026-05-07 19:59 | 50.95789 | 4.78105 | 2918 ft | 177 kts | 252° |
| 2026-05-07 19:59 | 50.95376 | 4.76286 | 2915 ft | 174 kts | 252° |
| 2026-05-07 20:00 | 50.94970 | 4.74493 | 2918 ft | 172 kts | 252° |
| 2026-05-07 20:00 | 50.94562 | 4.72704 | 2841 ft | 172 kts | 252° |
| 2026-05-07 20:00 | 50.94155 | 4.70918 | 2655 ft | 172 kts | 252° |
| 2026-05-07 20:00 | 50.93748 | 4.69137 | 2425 ft | 171 kts | 252° |
| 2026-05-07 20:01 | 50.93343 | 4.67363 | 2198 ft | 171 kts | 252° |
| 2026-05-07 20:01 | 50.92937 | 4.65588 | 1968 ft | 170 kts | 252° |
| 2026-05-07 20:01 | 50.92544 | 4.63876 | 1732 ft | 162 kts | 252° |
| 2026-05-07 20:01 | 50.92174 | 4.62264 | 1532 ft | 151 kts | 252° |
| 2026-05-07 20:02 | 50.91821 | 4.60724 | 1322 ft | 147 kts | 252° |
| 2026-05-07 20:02 | 50.91474 | 4.59212 | 1113 ft | 145 kts | 252° |
| 2026-05-07 20:02 | 50.91131 | 4.57723 | 910 ft | 143 kts | 252° |
| 2026-05-07 20:02 | 50.90798 | 4.56251 | 701 ft | 141 kts | 252° |
| 2026-05-07 20:03 | 50.90459 | 4.54803 | 531 ft | 139 kts | 252° |
| 2026-05-07 20:03 | 50.90132 | 4.53378 | 333 ft | 138 kts | 251° |
| 2026-05-07 20:03 | 50.89914 | 4.52411 | 240 ft | 138 kts | 251° |
| 2026-05-07 20:03 | 50.89576 | 4.50942 | 175 ft | 106 kts | 251° |
| 2026-05-07 20:04 | 50.89383 | 4.50099 | 177 ft | 57 kts | 251° |
| 2026-05-07 20:04 | 50.89349 | 4.49729 | 176 ft | 22 kts | 296° |
| 2026-05-07 20:04 | 50.89428 | 4.49551 | 168 ft | 15 kts | 307° |
| 2026-05-07 20:04 | 50.89494 | 4.49413 | 164 ft | 15 kts | 306° |
| 2026-05-07 20:05 | 50.89557 | 4.49278 | 159 ft | 17 kts | 307° |
| 2026-05-07 20:05 | 50.89630 | 4.49235 | 153 ft | 11 kts | 24° |
| 2026-05-07 20:05 | 50.89707 | 4.49287 | 149 ft | 14 kts | 12° |
| 2026-05-07 20:05 | 50.89826 | 4.49334 | 141 ft | 21 kts | 14° |
| 2026-05-07 20:06 | 50.89985 | 4.49389 | 132 ft | 22 kts | 351° |
| 2026-05-07 20:06 | 50.90120 | 4.49339 | 131 ft | 17 kts | 14° |
| 2026-05-07 20:06 | 50.90239 | 4.49387 | 124 ft | 21 kts | 14° |
| 2026-05-07 20:06 | 50.90325 | 4.49420 | 123 ft | 21 kts | 12° |
| 2026-05-07 20:07 | 50.90339 | 4.49411 | 120 ft | 1 kts | 300° |
| 2026-05-07 20:07 | 50.90341 | 4.49402 | 121 ft | 0 kts | 289° |
| 2026-05-07 20:07 | 50.90349 | 4.49378 | 121 ft | 10 kts | 299° |
| 2026-05-07 20:07 | 50.90432 | 4.49290 | 120 ft | 4 kts | 333° |
| 2026-05-07 20:08 | 50.90435 | 4.49288 | 120 ft | 0 kts | 334° |
| 2026-05-07 20:08 | 50.90435 | 4.49287 | 120 ft | 0 kts | 330° |
| 2026-05-07 20:08 | 50.90430 | 4.49272 | 120 ft | 5 kts | 240° |
| 2026-05-07 20:08 | 50.90364 | 4.49187 | 124 ft | 15 kts | 241° |
| 2026-05-07 20:09 | 50.90318 | 4.49032 | 121 ft | 18 kts | 245° |
| 2026-05-07 20:09 | 50.90267 | 4.48855 | 123 ft | 16 kts | 245° |
| 2026-05-07 20:09 | 50.90221 | 4.48692 | 120 ft | 14 kts | 246° |
| 2026-05-07 20:10 | 50.90262 | 4.48586 | 121 ft | 4 kts | 335° |
| 2026-05-07 20:10 | 50.90277 | 4.48575 | 119 ft | 2 kts | 335° |
| 2026-05-07 20:10 | 50.90278 | 4.48574 | 119 ft | 0 kts | 335° |